sensor_id;sensor_type;location;lat;lon;timestamp;pressure;altitude;pressure_sealevel;temperature;humidity
41140;BME280;26881;48.784;9.192;2022-11-20T00:00:04;98102.56;;;6.35;100.00
41140;BME280;26881;48.784;9.192;2022-11-20T00:05:26;98095.72;;;6.34;100.00
41140;BME280;26881;48.784;9.192;2022-11-20T00:10:47;98093.72;;;6.39;100.00
41140;BME280;26881;48.784;9.192;2022-11-20T00:16:11;98092.72;;;6.42;99.76
41140;BME280;26881;48.784;9.192;2022-11-20T00:21:33;98092.34;;;6.32;100.00
41140;BME280;26881;48.784;9.192;2022-11-20T00:26:54;98098.31;;;6.34;100.00
41140;BME280;26881;48.784;9.192;2022-11-20T00:32:16;98088.81;;;6.33;100.00
41140;BME280;26881;48.784;9.192;2022-11-20T00:37:38;98086.28;;;6.31;100.00
41140;BME280;26881;48.784;9.192;2022-11-20T00:43:00;98090.03;;;6.43;100.00
41140;BME280;26881;48.784;9.192;2022-11-20T00:48:21;98079.16;;;6.52;100.00
41140;BME280;26881;48.784;9.192;2022-11-20T00:53:44;98087.81;;;6.70;100.00
41140;BME280;26881;48.784;9.192;2022-11-20T00:59:06;98077.75;;;6.80;97.43
41140;BME280;26881;48.784;9.192;2022-11-20T01:04:27;98086.44;;;6.96;95.92
41140;BME280;26881;48.784;9.192;2022-11-20T01:09:49;98086.31;;;6.82;95.49
41140;BME280;26881;48.784;9.192;2022-11-20T01:15:11;98088.97;;;6.65;95.87
41140;BME280;26881;48.784;9.192;2022-11-20T01:20:36;98092.63;;;6.61;97.61
41140;BME280;26881;48.784;9.192;2022-11-20T01:26:00;98099.16;;;6.85;93.75
41140;BME280;26881;48.784;9.192;2022-11-20T01:31:28;98104.34;;;6.85;92.43
41140;BME280;26881;48.784;9.192;2022-11-20T01:36:50;98110.00;;;6.93;93.32
41140;BME280;26881;48.784;9.192;2022-11-20T01:42:12;98101.91;;;6.82;90.99
41140;BME280;26881;48.784;9.192;2022-11-20T01:47:53;98107.13;;;6.82;92.03
41140;BME280;26881;48.784;9.192;2022-11-20T01:53:17;98108.94;;;6.97;89.23
41140;BME280;26881;48.784;9.192;2022-11-20T01:58:45;98098.69;;;6.94;90.61
41140;BME280;26881;48.784;9.192;2022-11-20T02:04:09;98101.25;;;7.12;89.18
41140;BME280;26881;48.784;9.192;2022-11-20T02:09:31;98101.16;;;6.97;89.70
41140;BME280;26881;48.784;9.192;2022-11-20T02:14:53;98103.25;;;7.07;87.71
41140;BME280;26881;48.784;9.192;2022-11-20T02:20:15;98110.06;;;7.09;87.43
41140;BME280;26881;48.784;9.192;2022-11-20T02:25:37;98113.22;;;6.99;87.13
41140;BME280;26881;48.784;9.192;2022-11-20T02:31:00;98108.66;;;6.86;88.87
41140;BME280;26881;48.784;9.192;2022-11-20T02:36:24;98111.66;;;6.44;89.53
41140;BME280;26881;48.784;9.192;2022-11-20T02:41:47;98110.75;;;6.45;91.81
41140;BME280;26881;48.784;9.192;2022-11-20T02:47:09;98102.25;;;6.76;90.93
41140;BME280;26881;48.784;9.192;2022-11-20T02:52:31;98108.19;;;6.78;89.09
41140;BME280;26881;48.784;9.192;2022-11-20T02:57:53;98102.16;;;6.95;89.40
41140;BME280;26881;48.784;9.192;2022-11-20T03:03:15;98113.97;;;7.01;87.89
41140;BME280;26881;48.784;9.192;2022-11-20T03:08:36;98110.06;;;7.09;85.80
41140;BME280;26881;48.784;9.192;2022-11-20T03:14:02;98114.09;;;7.15;85.28
41140;BME280;26881;48.784;9.192;2022-11-20T03:19:23;98103.25;;;7.07;85.48
41140;BME280;26881;48.784;9.192;2022-11-20T03:24:45;98104.03;;;7.09;86.55
41140;BME280;26881;48.784;9.192;2022-11-20T03:30:08;98086.31;;;7.15;85.23
41140;BME280;26881;48.784;9.192;2022-11-20T03:35:29;98085.41;;;7.16;84.59
41140;BME280;26881;48.784;9.192;2022-11-20T03:40:58;98075.44;;;7.09;86.35
41140;BME280;26881;48.784;9.192;2022-11-20T03:46:20;98083.06;;;7.12;84.31
41140;BME280;26881;48.784;9.192;2022-11-20T03:51:42;98081.22;;;7.14;84.96
41140;BME280;26881;48.784;9.192;2022-11-20T03:57:03;98077.16;;;7.08;84.46
41140;BME280;26881;48.784;9.192;2022-11-20T04:02:25;98076.16;;;7.11;84.25
41140;BME280;26881;48.784;9.192;2022-11-20T04:07:47;98083.47;;;7.04;84.34
41140;BME280;26881;48.784;9.192;2022-11-20T04:13:08;98078.03;;;7.09;83.81
41140;BME280;26881;48.784;9.192;2022-11-20T04:18:30;98082.53;;;7.05;84.23
41140;BME280;26881;48.784;9.192;2022-11-20T04:23:53;98084.72;;;6.97;85.29
41140;BME280;26881;48.784;9.192;2022-11-20T04:29:15;98080.47;;;6.94;85.15
41140;BME280;26881;48.784;9.192;2022-11-20T04:34:37;98075.28;;;6.94;83.78
41140;BME280;26881;48.784;9.192;2022-11-20T04:39:58;98084.59;;;6.99;84.15
41140;BME280;26881;48.784;9.192;2022-11-20T04:45:20;98080.34;;;6.97;83.55
41140;BME280;26881;48.784;9.192;2022-11-20T04:50:42;98076.47;;;6.89;83.36
41140;BME280;26881;48.784;9.192;2022-11-20T04:56:08;98081.81;;;6.86;83.55
41140;BME280;26881;48.784;9.192;2022-11-20T05:01:31;98077.09;;;6.77;82.50
41140;BME280;26881;48.784;9.192;2022-11-20T05:06:54;98076.69;;;6.84;84.27
41140;BME280;26881;48.784;9.192;2022-11-20T05:12:15;98075.75;;;6.85;84.03
41140;BME280;26881;48.784;9.192;2022-11-20T05:17:37;98075.94;;;6.82;84.69
41140;BME280;26881;48.784;9.192;2022-11-20T05:22:59;98068.91;;;6.84;84.14
41140;BME280;26881;48.784;9.192;2022-11-20T05:28:21;98067.00;;;7.04;83.56
41140;BME280;26881;48.784;9.192;2022-11-20T05:33:44;98064.75;;;6.97;84.01
41140;BME280;26881;48.784;9.192;2022-11-20T05:39:06;98069.13;;;7.13;84.16
41140;BME280;26881;48.784;9.192;2022-11-20T05:44:27;98074.06;;;7.02;83.39
41140;BME280;26881;48.784;9.192;2022-11-20T05:49:49;98067.09;;;7.02;84.24
41140;BME280;26881;48.784;9.192;2022-11-20T05:55:11;98062.44;;;7.09;83.23
41140;BME280;26881;48.784;9.192;2022-11-20T06:00:32;98070.56;;;7.18;84.01
41140;BME280;26881;48.784;9.192;2022-11-20T06:05:54;98066.44;;;7.14;84.08
41140;BME280;26881;48.784;9.192;2022-11-20T06:11:16;98068.63;;;7.22;85.11
41140;BME280;26881;48.784;9.192;2022-11-20T06:16:38;98067.97;;;7.18;83.71
41140;BME280;26881;48.784;9.192;2022-11-20T06:22:00;98067.53;;;7.26;84.28
41140;BME280;26881;48.784;9.192;2022-11-20T06:27:22;98052.78;;;7.27;84.55
41140;BME280;26881;48.784;9.192;2022-11-20T06:32:43;98055.38;;;7.27;83.92
41140;BME280;26881;48.784;9.192;2022-11-20T06:38:05;98054.03;;;7.20;84.15
41140;BME280;26881;48.784;9.192;2022-11-20T06:43:28;98050.28;;;7.25;83.43
41140;BME280;26881;48.784;9.192;2022-11-20T06:48:50;98057.59;;;7.34;82.53
41140;BME280;26881;48.784;9.192;2022-11-20T06:54:12;98060.78;;;7.39;81.63
41140;BME280;26881;48.784;9.192;2022-11-20T06:59:34;98059.44;;;7.32;83.49
41140;BME280;26881;48.784;9.192;2022-11-20T07:04:55;98071.25;;;7.38;82.13
41140;BME280;26881;48.784;9.192;2022-11-20T07:10:17;98073.44;;;7.30;82.00
41140;BME280;26881;48.784;9.192;2022-11-20T07:15:39;98076.28;;;7.25;82.00
41140;BME280;26881;48.784;9.192;2022-11-20T07:21:02;98071.31;;;7.36;82.26
41140;BME280;26881;48.784;9.192;2022-11-20T07:26:24;98074.28;;;7.46;82.68
41140;BME280;26881;48.784;9.192;2022-11-20T07:31:46;98086.28;;;7.49;80.81
41140;BME280;26881;48.784;9.192;2022-11-20T07:37:07;98082.50;;;7.54;81.98
41140;BME280;26881;48.784;9.192;2022-11-20T07:42:31;98084.19;;;7.55;81.16
41140;BME280;26881;48.784;9.192;2022-11-20T07:47:52;98080.97;;;7.50;80.87
41140;BME280;26881;48.784;9.192;2022-11-20T07:53:14;98082.56;;;7.53;80.79
41140;BME280;26881;48.784;9.192;2022-11-20T07:58:42;98085.09;;;7.70;80.91
41140;BME280;26881;48.784;9.192;2022-11-20T08:04:04;98095.34;;;7.73;80.39
41140;BME280;26881;48.784;9.192;2022-11-20T08:09:25;98093.84;;;7.69;80.81
41140;BME280;26881;48.784;9.192;2022-11-20T08:14:47;98108.09;;;7.78;80.52
41140;BME280;26881;48.784;9.192;2022-11-20T08:20:09;98109.94;;;7.76;81.11
41140;BME280;26881;48.784;9.192;2022-11-20T08:25:32;98105.59;;;7.76;80.27
41140;BME280;26881;48.784;9.192;2022-11-20T08:31:02;98114.91;;;7.80;80.66
41140;BME280;26881;48.784;9.192;2022-11-20T08:36:24;98109.78;;;7.95;80.81
41140;BME280;26881;48.784;9.192;2022-11-20T08:41:46;98112.56;;;7.92;80.30
41140;BME280;26881;48.784;9.192;2022-11-20T08:47:08;98103.47;;;7.99;80.63
41140;BME280;26881;48.784;9.192;2022-11-20T08:52:29;98103.72;;;8.10;80.45
41140;BME280;26881;48.784;9.192;2022-11-20T08:57:55;98111.75;;;8.21;79.55
41140;BME280;26881;48.784;9.192;2022-11-20T09:03:16;98113.28;;;8.26;79.21
41140;BME280;26881;48.784;9.192;2022-11-20T09:08:38;98118.47;;;8.26;79.15
41140;BME280;26881;48.784;9.192;2022-11-20T09:14:00;98118.78;;;8.35;80.32
41140;BME280;26881;48.784;9.192;2022-11-20T09:19:24;98122.91;;;8.39;79.36
41140;BME280;26881;48.784;9.192;2022-11-20T09:24:56;98130.72;;;8.39;80.02
41140;BME280;26881;48.784;9.192;2022-11-20T09:30:18;98130.81;;;8.38;79.82
41140;BME280;26881;48.784;9.192;2022-11-20T09:35:40;98139.78;;;8.48;79.91
41140;BME280;26881;48.784;9.192;2022-11-20T09:41:10;98142.31;;;8.50;80.13
41140;BME280;26881;48.784;9.192;2022-11-20T09:46:58;98153.16;;;8.58;79.20
41140;BME280;26881;48.784;9.192;2022-11-20T09:52:36;98143.81;;;8.54;77.91
41140;BME280;26881;48.784;9.192;2022-11-20T09:58:06;98158.03;;;8.48;77.84
41140;BME280;26881;48.784;9.192;2022-11-20T10:04:11;98146.13;;;8.44;78.20
41140;BME280;26881;48.784;9.192;2022-11-20T10:09:37;98150.47;;;8.43;77.61
41140;BME280;26881;48.784;9.192;2022-11-20T10:20:55;98159.47;;;8.54;78.62
41140;BME280;26881;48.784;9.192;2022-11-20T10:26:34;98163.09;;;8.51;79.02
41140;BME280;26881;48.784;9.192;2022-11-20T10:32:04;98168.72;;;8.43;82.92
41140;BME280;26881;48.784;9.192;2022-11-20T10:37:31;98185.34;;;8.25;87.17
41140;BME280;26881;48.784;9.192;2022-11-20T10:43:11;98172.13;;;7.98;90.81
41140;BME280;26881;48.784;9.192;2022-11-20T10:48:36;98177.31;;;7.98;92.48
41140;BME280;26881;48.784;9.192;2022-11-20T10:59:44;98161.34;;;7.72;95.46
41140;BME280;26881;48.784;9.192;2022-11-20T11:05:41;98148.41;;;7.71;97.44
41140;BME280;26881;48.784;9.192;2022-11-20T11:11:25;98150.69;;;7.77;97.41
41140;BME280;26881;48.784;9.192;2022-11-20T11:16:57;98146.63;;;7.71;97.70
41140;BME280;26881;48.784;9.192;2022-11-20T11:22:19;98137.50;;;7.80;97.57
41140;BME280;26881;48.784;9.192;2022-11-20T11:27:49;98121.63;;;7.85;97.28
41140;BME280;26881;48.784;9.192;2022-11-20T11:33:19;98107.44;;;7.74;99.46
41140;BME280;26881;48.784;9.192;2022-11-20T11:38:42;98103.47;;;7.83;100.00
41140;BME280;26881;48.784;9.192;2022-11-20T11:44:17;98090.91;;;7.75;100.00
41140;BME280;26881;48.784;9.192;2022-11-20T11:55:48;98077.56;;;7.81;100.00
41140;BME280;26881;48.784;9.192;2022-11-20T12:01:32;98074.31;;;7.92;100.00
41140;BME280;26881;48.784;9.192;2022-11-20T12:07:01;98074.97;;;8.12;93.90
41140;BME280;26881;48.784;9.192;2022-11-20T12:12:50;98078.84;;;8.20;93.18
41140;BME280;26881;48.784;9.192;2022-11-20T12:18:18;98065.81;;;8.20;93.13
41140;BME280;26881;48.784;9.192;2022-11-20T12:40:50;98051.66;;;8.24;92.10
41140;BME280;26881;48.784;9.192;2022-11-20T12:46:27;98062.34;;;8.50;84.59
41140;BME280;26881;48.784;9.192;2022-11-20T12:52:11;98060.16;;;8.73;79.25
41140;BME280;26881;48.784;9.192;2022-11-20T12:57:43;98054.97;;;8.87;74.60
41140;BME280;26881;48.784;9.192;2022-11-20T13:08:36;98053.47;;;8.97;70.66
41140;BME280;26881;48.784;9.192;2022-11-20T13:14:07;98061.66;;;9.05;72.53
41140;BME280;26881;48.784;9.192;2022-11-20T13:19:32;98062.34;;;9.09;70.01
41140;BME280;26881;48.784;9.192;2022-11-20T13:24:55;98048.44;;;9.08;68.17
41140;BME280;26881;48.784;9.192;2022-11-20T13:30:19;98042.47;;;9.06;68.20
41140;BME280;26881;48.784;9.192;2022-11-20T13:35:42;98032.44;;;8.86;72.26
41140;BME280;26881;48.784;9.192;2022-11-20T13:41:04;98027.31;;;8.84;70.80
41140;BME280;26881;48.784;9.192;2022-11-20T13:46:46;98032.50;;;8.99;68.98
41140;BME280;26881;48.784;9.192;2022-11-20T14:03:24;98039.31;;;9.01;68.27
41140;BME280;26881;48.784;9.192;2022-11-20T14:09:31;98025.81;;;8.80;72.14
41140;BME280;26881;48.784;9.192;2022-11-20T14:14:53;98028.31;;;8.68;74.13
41140;BME280;26881;48.784;9.192;2022-11-20T14:20:16;98029.63;;;8.60;75.54
41140;BME280;26881;48.784;9.192;2022-11-20T14:25:44;98022.72;;;8.59;75.88
41140;BME280;26881;48.784;9.192;2022-11-20T14:31:24;98032.03;;;8.49;76.44
41140;BME280;26881;48.784;9.192;2022-11-20T14:36:47;98029.53;;;8.32;78.89
41140;BME280;26881;48.784;9.192;2022-11-20T14:42:20;98018.75;;;8.38;77.63
41140;BME280;26881;48.784;9.192;2022-11-20T14:47:43;98014.63;;;8.19;78.33
41140;BME280;26881;48.784;9.192;2022-11-20T14:53:25;98008.69;;;8.32;78.61
41140;BME280;26881;48.784;9.192;2022-11-20T14:58:55;97990.38;;;8.33;75.93
41140;BME280;26881;48.784;9.192;2022-11-20T15:04:17;97984.88;;;8.23;77.61
41140;BME280;26881;48.784;9.192;2022-11-20T15:09:39;97984.25;;;8.04;77.00
41140;BME280;26881;48.784;9.192;2022-11-20T15:15:02;97968.81;;;8.01;76.82
41140;BME280;26881;48.784;9.192;2022-11-20T15:20:28;97974.84;;;8.01;75.84
41140;BME280;26881;48.784;9.192;2022-11-20T15:25:51;97976.81;;;7.98;75.45
41140;BME280;26881;48.784;9.192;2022-11-20T15:31:15;97965.16;;;7.89;76.26
41140;BME280;26881;48.784;9.192;2022-11-20T15:36:38;97968.28;;;8.24;78.31
41140;BME280;26881;48.784;9.192;2022-11-20T15:41:59;97983.97;;;8.09;77.70
41140;BME280;26881;48.784;9.192;2022-11-20T15:47:28;97957.06;;;7.94;80.26
41140;BME280;26881;48.784;9.192;2022-11-20T15:52:51;97964.66;;;7.82;80.24
41140;BME280;26881;48.784;9.192;2022-11-20T15:58:13;97954.78;;;7.73;82.90
41140;BME280;26881;48.784;9.192;2022-11-20T16:03:35;97951.69;;;7.67;84.42
41140;BME280;26881;48.784;9.192;2022-11-20T16:08:56;97956.44;;;7.60;82.99
41140;BME280;26881;48.784;9.192;2022-11-20T16:14:18;97945.25;;;7.58;83.77
41140;BME280;26881;48.784;9.192;2022-11-20T16:19:58;97942.56;;;7.59;82.06
41140;BME280;26881;48.784;9.192;2022-11-20T16:25:20;97945.34;;;7.56;84.70
41140;BME280;26881;48.784;9.192;2022-11-20T16:30:42;97935.34;;;7.65;83.07
41140;BME280;26881;48.784;9.192;2022-11-20T16:36:11;97932.00;;;7.63;82.34
41140;BME280;26881;48.784;9.192;2022-11-20T16:41:34;97930.97;;;7.65;85.05
41140;BME280;26881;48.784;9.192;2022-11-20T16:46:56;97924.25;;;7.61;86.08
41140;BME280;26881;48.784;9.192;2022-11-20T16:52:17;97916.72;;;7.56;85.75
41140;BME280;26881;48.784;9.192;2022-11-20T16:57:39;97918.03;;;7.64;85.03
41140;BME280;26881;48.784;9.192;2022-11-20T17:03:04;97918.88;;;7.64;84.22
41140;BME280;26881;48.784;9.192;2022-11-20T17:08:27;97906.63;;;7.66;85.88
41140;BME280;26881;48.784;9.192;2022-11-20T17:13:51;97908.47;;;7.64;86.11
41140;BME280;26881;48.784;9.192;2022-11-20T17:19:13;97901.41;;;7.66;85.64
41140;BME280;26881;48.784;9.192;2022-11-20T17:24:35;97898.38;;;7.74;85.64
41140;BME280;26881;48.784;9.192;2022-11-20T17:29:57;97898.28;;;7.75;86.21
41140;BME280;26881;48.784;9.192;2022-11-20T17:35:19;97895.88;;;7.87;83.71
41140;BME280;26881;48.784;9.192;2022-11-20T17:40:41;97891.97;;;7.94;82.25
41140;BME280;26881;48.784;9.192;2022-11-20T17:46:07;97886.97;;;7.91;81.95
41140;BME280;26881;48.784;9.192;2022-11-20T17:51:32;97882.69;;;8.04;79.60
41140;BME280;26881;48.784;9.192;2022-11-20T17:56:55;97880.28;;;8.01;81.26
41140;BME280;26881;48.784;9.192;2022-11-20T18:02:35;97868.09;;;8.01;81.78
41140;BME280;26881;48.784;9.192;2022-11-20T18:07:57;97859.44;;;8.01;82.29
41140;BME280;26881;48.784;9.192;2022-11-20T18:13:18;97854.72;;;8.08;82.19
41140;BME280;26881;48.784;9.192;2022-11-20T18:18:40;97853.69;;;8.10;79.81
41140;BME280;26881;48.784;9.192;2022-11-20T18:24:02;97843.81;;;8.01;81.62
41140;BME280;26881;48.784;9.192;2022-11-20T18:29:24;97842.91;;;8.02;79.15
41140;BME280;26881;48.784;9.192;2022-11-20T18:34:47;97829.31;;;7.97;81.43
41140;BME280;26881;48.784;9.192;2022-11-20T18:40:10;97824.47;;;7.91;81.34
41140;BME280;26881;48.784;9.192;2022-11-20T18:45:32;97815.84;;;7.90;81.47
41140;BME280;26881;48.784;9.192;2022-11-20T18:50:53;97826.91;;;7.94;82.05
41140;BME280;26881;48.784;9.192;2022-11-20T18:56:15;97816.56;;;7.92;81.79
41140;BME280;26881;48.784;9.192;2022-11-20T19:01:37;97816.81;;;7.59;87.80
41140;BME280;26881;48.784;9.192;2022-11-20T19:06:59;97808.75;;;7.64;85.97
41140;BME280;26881;48.784;9.192;2022-11-20T19:12:21;97803.78;;;7.45;87.08
41140;BME280;26881;48.784;9.192;2022-11-20T19:17:43;97808.16;;;7.44;85.37
41140;BME280;26881;48.784;9.192;2022-11-20T19:23:05;97808.09;;;7.60;86.49
41140;BME280;26881;48.784;9.192;2022-11-20T19:28:30;97800.47;;;7.71;84.76
41140;BME280;26881;48.784;9.192;2022-11-20T19:33:53;97792.34;;;7.47;85.33
41140;BME280;26881;48.784;9.192;2022-11-20T19:39:15;97791.47;;;7.18;85.49
41140;BME280;26881;48.784;9.192;2022-11-20T19:44:37;97786.19;;;7.34;85.39
41140;BME280;26881;48.784;9.192;2022-11-20T19:49:59;97781.84;;;7.34;83.19
41140;BME280;26881;48.784;9.192;2022-11-20T19:55:20;97779.97;;;7.36;79.73
41140;BME280;26881;48.784;9.192;2022-11-20T20:00:42;97774.59;;;7.39;82.33
41140;BME280;26881;48.784;9.192;2022-11-20T20:06:12;97779.81;;;7.39;79.39
41140;BME280;26881;48.784;9.192;2022-11-20T20:11:35;97776.19;;;7.42;79.40
41140;BME280;26881;48.784;9.192;2022-11-20T20:16:57;97772.66;;;7.43;78.95
41140;BME280;26881;48.784;9.192;2022-11-20T20:22:18;97773.88;;;7.52;80.13
41140;BME280;26881;48.784;9.192;2022-11-20T20:27:40;97773.59;;;7.42;78.88
41140;BME280;26881;48.784;9.192;2022-11-20T20:33:02;97773.78;;;7.39;80.02
41140;BME280;26881;48.784;9.192;2022-11-20T20:38:24;97779.06;;;7.52;76.35
41140;BME280;26881;48.784;9.192;2022-11-20T20:43:46;97787.88;;;7.35;79.05
41140;BME280;26881;48.784;9.192;2022-11-20T20:49:26;97782.41;;;7.39;80.81
41140;BME280;26881;48.784;9.192;2022-11-20T20:54:48;97776.75;;;7.47;80.18
41140;BME280;26881;48.784;9.192;2022-11-20T21:00:10;97787.13;;;7.33;83.15
41140;BME280;26881;48.784;9.192;2022-11-20T21:05:32;97794.84;;;7.34;81.22
41140;BME280;26881;48.784;9.192;2022-11-20T21:10:59;97790.75;;;7.30;82.74
41140;BME280;26881;48.784;9.192;2022-11-20T21:16:21;97796.97;;;7.28;82.74
41140;BME280;26881;48.784;9.192;2022-11-20T21:21:43;97803.84;;;7.29;82.20
41140;BME280;26881;48.784;9.192;2022-11-20T21:27:19;97812.47;;;7.29;81.75
41140;BME280;26881;48.784;9.192;2022-11-20T21:32:41;97806.56;;;7.42;81.76
41140;BME280;26881;48.784;9.192;2022-11-20T21:38:03;97787.00;;;7.20;82.54
41140;BME280;26881;48.784;9.192;2022-11-20T21:43:24;97783.22;;;7.26;81.32
41140;BME280;26881;48.784;9.192;2022-11-20T21:48:46;97785.63;;;7.29;81.63
41140;BME280;26881;48.784;9.192;2022-11-20T21:54:08;97796.97;;;7.28;81.32
41140;BME280;26881;48.784;9.192;2022-11-20T21:59:31;97810.72;;;7.30;79.09
41140;BME280;26881;48.784;9.192;2022-11-20T22:04:52;97805.72;;;7.11;80.76
41140;BME280;26881;48.784;9.192;2022-11-20T22:10:14;97811.41;;;7.17;81.30
41140;BME280;26881;48.784;9.192;2022-11-20T22:15:39;97809.34;;;7.08;81.97
41140;BME280;26881;48.784;9.192;2022-11-20T22:21:22;97815.03;;;7.15;81.09
41140;BME280;26881;48.784;9.192;2022-11-20T22:26:44;97800.63;;;7.09;83.15
41140;BME280;26881;48.784;9.192;2022-11-20T22:32:06;97815.22;;;7.12;83.06
41140;BME280;26881;48.784;9.192;2022-11-20T22:37:28;97818.88;;;7.24;83.09
41140;BME280;26881;48.784;9.192;2022-11-20T22:42:50;97817.66;;;7.29;82.04
41140;BME280;26881;48.784;9.192;2022-11-20T22:48:12;97812.97;;;7.36;83.02
41140;BME280;26881;48.784;9.192;2022-11-20T22:53:34;97815.75;;;7.33;81.34
41140;BME280;26881;48.784;9.192;2022-11-20T22:58:56;97811.91;;;7.24;82.16
41140;BME280;26881;48.784;9.192;2022-11-20T23:04:18;97820.59;;;7.09;83.56
41140;BME280;26881;48.784;9.192;2022-11-20T23:09:39;97824.41;;;7.17;82.39
41140;BME280;26881;48.784;9.192;2022-11-20T23:15:01;97809.97;;;7.28;82.04
41140;BME280;26881;48.784;9.192;2022-11-20T23:20:23;97806.63;;;7.26;82.26
41140;BME280;26881;48.784;9.192;2022-11-20T23:25:44;97811.03;;;7.09;80.48
41140;BME280;26881;48.784;9.192;2022-11-20T23:31:07;97808.41;;;7.25;80.67
41140;BME280;26881;48.784;9.192;2022-11-20T23:36:29;97813.94;;;7.19;80.91
41140;BME280;26881;48.784;9.192;2022-11-20T23:41:51;97822.44;;;7.07;82.47
41140;BME280;26881;48.784;9.192;2022-11-20T23:47:13;97820.59;;;7.09;82.71
41140;BME280;26881;48.784;9.192;2022-11-20T23:52:34;97820.16;;;7.16;81.82
41140;BME280;26881;48.784;9.192;2022-11-20T23:57:56;97823.59;;;7.17;82.42
